sensor_id;sensor_type;location;lat;lon;timestamp;temperature;humidity
16315;DHT22;8266;52.150;4.768;2023-12-20T00:01:41;9.80;99.90
16315;DHT22;8266;52.150;4.768;2023-12-20T00:04:09;9.80;99.90
16315;DHT22;8266;52.150;4.768;2023-12-20T00:06:36;9.80;99.90
16315;DHT22;8266;52.150;4.768;2023-12-20T00:09:03;9.80;99.90
16315;DHT22;8266;52.150;4.768;2023-12-20T00:11:30;9.70;99.90
16315;DHT22;8266;52.150;4.768;2023-12-20T00:13:57;9.70;99.90
16315;DHT22;8266;52.150;4.768;2023-12-20T00:16:24;9.70;99.90
16315;DHT22;8266;52.150;4.768;2023-12-20T00:18:51;9.80;99.90
16315;DHT22;8266;52.150;4.768;2023-12-20T00:21:20;9.80;99.90
16315;DHT22;8266;52.150;4.768;2023-12-20T00:23:47;9.80;99.90
16315;DHT22;8266;52.150;4.768;2023-12-20T00:26:14;9.80;99.90
16315;DHT22;8266;52.150;4.768;2023-12-20T00:28:41;9.80;99.90
16315;DHT22;8266;52.150;4.768;2023-12-20T00:31:08;9.90;99.90
16315;DHT22;8266;52.150;4.768;2023-12-20T00:33:35;9.90;99.90
16315;DHT22;8266;52.150;4.768;2023-12-20T00:36:02;9.90;99.90
16315;DHT22;8266;52.150;4.768;2023-12-20T00:38:31;9.90;99.90
16315;DHT22;8266;52.150;4.768;2023-12-20T00:40:58;9.90;99.90
16315;DHT22;8266;52.150;4.768;2023-12-20T00:43:25;9.90;99.90
16315;DHT22;8266;52.150;4.768;2023-12-20T00:45:52;9.90;99.90
16315;DHT22;8266;52.150;4.768;2023-12-20T00:48:19;9.90;99.90
16315;DHT22;8266;52.150;4.768;2023-12-20T00:50:46;9.90;99.90
16315;DHT22;8266;52.150;4.768;2023-12-20T00:53:13;10.00;99.90
16315;DHT22;8266;52.150;4.768;2023-12-20T00:55:41;9.90;99.90
16315;DHT22;8266;52.150;4.768;2023-12-20T00:58:09;9.90;99.90
16315;DHT22;8266;52.150;4.768;2023-12-20T01:00:36;9.90;99.90
16315;DHT22;8266;52.150;4.768;2023-12-20T01:03:04;9.90;99.90
16315;DHT22;8266;52.150;4.768;2023-12-20T01:05:31;9.90;99.90
16315;DHT22;8266;52.150;4.768;2023-12-20T01:07:57;9.90;99.90
16315;DHT22;8266;52.150;4.768;2023-12-20T01:10:25;9.90;99.90
16315;DHT22;8266;52.150;4.768;2023-12-20T01:12:55;9.90;99.90
16315;DHT22;8266;52.150;4.768;2023-12-20T01:15:22;9.90;99.90
16315;DHT22;8266;52.150;4.768;2023-12-20T01:17:49;9.90;99.90
16315;DHT22;8266;52.150;4.768;2023-12-20T01:20:17;9.90;99.90
16315;DHT22;8266;52.150;4.768;2023-12-20T01:22:45;9.90;99.90
16315;DHT22;8266;52.150;4.768;2023-12-20T01:25:12;9.90;99.90
16315;DHT22;8266;52.150;4.768;2023-12-20T01:27:39;9.90;99.90
16315;DHT22;8266;52.150;4.768;2023-12-20T01:30:09;9.90;99.90
16315;DHT22;8266;52.150;4.768;2023-12-20T01:32:36;9.90;99.90
16315;DHT22;8266;52.150;4.768;2023-12-20T01:35:04;9.90;99.90
16315;DHT22;8266;52.150;4.768;2023-12-20T01:37:31;9.90;99.90
16315;DHT22;8266;52.150;4.768;2023-12-20T01:39:57;9.90;99.90
16315;DHT22;8266;52.150;4.768;2023-12-20T01:42:25;9.90;99.90
16315;DHT22;8266;52.150;4.768;2023-12-20T01:44:52;9.90;99.90
16315;DHT22;8266;52.150;4.768;2023-12-20T01:47:20;9.90;99.90
16315;DHT22;8266;52.150;4.768;2023-12-20T01:49:48;9.90;99.90
16315;DHT22;8266;52.150;4.768;2023-12-20T01:52:15;9.90;99.90
16315;DHT22;8266;52.150;4.768;2023-12-20T01:54:43;10.00;99.90
16315;DHT22;8266;52.150;4.768;2023-12-20T01:57:10;10.00;99.90
16315;DHT22;8266;52.150;4.768;2023-12-20T01:59:39;10.10;99.90
16315;DHT22;8266;52.150;4.768;2023-12-20T02:02:07;10.10;99.90
16315;DHT22;8266;52.150;4.768;2023-12-20T02:04:36;10.10;99.90
16315;DHT22;8266;52.150;4.768;2023-12-20T02:07:03;10.10;99.90
16315;DHT22;8266;52.150;4.768;2023-12-20T02:09:31;10.10;99.90
16315;DHT22;8266;52.150;4.768;2023-12-20T02:11:59;10.10;99.90
16315;DHT22;8266;52.150;4.768;2023-12-20T02:14:26;10.10;99.90
16315;DHT22;8266;52.150;4.768;2023-12-20T02:16:53;10.00;99.90
16315;DHT22;8266;52.150;4.768;2023-12-20T02:19:20;10.10;99.90
16315;DHT22;8266;52.150;4.768;2023-12-20T02:21:49;10.10;99.90
16315;DHT22;8266;52.150;4.768;2023-12-20T02:24:16;10.10;99.90
16315;DHT22;8266;52.150;4.768;2023-12-20T02:26:43;10.10;99.90
16315;DHT22;8266;52.150;4.768;2023-12-20T02:29:10;10.20;99.90
16315;DHT22;8266;52.150;4.768;2023-12-20T02:31:37;10.10;99.90
16315;DHT22;8266;52.150;4.768;2023-12-20T02:34:04;10.10;99.90
16315;DHT22;8266;52.150;4.768;2023-12-20T02:36:31;10.10;99.90
16315;DHT22;8266;52.150;4.768;2023-12-20T02:38:59;10.10;99.90
16315;DHT22;8266;52.150;4.768;2023-12-20T02:41:26;10.10;99.90
16315;DHT22;8266;52.150;4.768;2023-12-20T02:43:53;10.10;99.90
16315;DHT22;8266;52.150;4.768;2023-12-20T02:46:20;10.10;99.90
16315;DHT22;8266;52.150;4.768;2023-12-20T02:48:47;10.10;99.90
16315;DHT22;8266;52.150;4.768;2023-12-20T02:51:15;10.10;99.90
16315;DHT22;8266;52.150;4.768;2023-12-20T02:53:42;10.10;99.90
16315;DHT22;8266;52.150;4.768;2023-12-20T02:56:10;10.10;99.90
16315;DHT22;8266;52.150;4.768;2023-12-20T02:58:37;10.10;99.90
16315;DHT22;8266;52.150;4.768;2023-12-20T03:01:04;10.10;99.90
16315;DHT22;8266;52.150;4.768;2023-12-20T03:03:31;10.10;99.90
16315;DHT22;8266;52.150;4.768;2023-12-20T03:05:59;10.10;99.90
16315;DHT22;8266;52.150;4.768;2023-12-20T03:08:26;10.10;99.90
16315;DHT22;8266;52.150;4.768;2023-12-20T03:10:53;10.10;99.90
16315;DHT22;8266;52.150;4.768;2023-12-20T03:13:21;10.10;99.90
16315;DHT22;8266;52.150;4.768;2023-12-20T03:15:48;10.10;99.90
16315;DHT22;8266;52.150;4.768;2023-12-20T03:18:15;10.10;99.90
16315;DHT22;8266;52.150;4.768;2023-12-20T03:20:43;10.10;99.90
16315;DHT22;8266;52.150;4.768;2023-12-20T03:23:10;10.10;99.90
16315;DHT22;8266;52.150;4.768;2023-12-20T03:25:37;10.20;99.90
16315;DHT22;8266;52.150;4.768;2023-12-20T03:28:05;10.20;99.90
16315;DHT22;8266;52.150;4.768;2023-12-20T03:30:33;10.20;99.90
16315;DHT22;8266;52.150;4.768;2023-12-20T03:33:00;10.20;99.90
16315;DHT22;8266;52.150;4.768;2023-12-20T03:35:27;10.20;99.90
16315;DHT22;8266;52.150;4.768;2023-12-20T03:37:54;10.20;99.90
16315;DHT22;8266;52.150;4.768;2023-12-20T03:40:22;10.20;99.90
16315;DHT22;8266;52.150;4.768;2023-12-20T03:42:49;10.20;99.90
16315;DHT22;8266;52.150;4.768;2023-12-20T03:45:16;10.20;99.90
16315;DHT22;8266;52.150;4.768;2023-12-20T03:47:45;10.20;99.90
16315;DHT22;8266;52.150;4.768;2023-12-20T03:50:12;10.20;99.90
16315;DHT22;8266;52.150;4.768;2023-12-20T03:52:39;10.20;99.90
16315;DHT22;8266;52.150;4.768;2023-12-20T03:55:06;10.20;99.90
16315;DHT22;8266;52.150;4.768;2023-12-20T03:57:33;10.20;99.90
16315;DHT22;8266;52.150;4.768;2023-12-20T04:00:00;10.20;99.90
16315;DHT22;8266;52.150;4.768;2023-12-20T04:02:27;10.20;99.90
16315;DHT22;8266;52.150;4.768;2023-12-20T04:04:55;10.20;99.90
16315;DHT22;8266;52.150;4.768;2023-12-20T04:07:22;10.20;99.90
16315;DHT22;8266;52.150;4.768;2023-12-20T04:09:49;10.20;99.90
16315;DHT22;8266;52.150;4.768;2023-12-20T04:12:16;10.20;99.90
16315;DHT22;8266;52.150;4.768;2023-12-20T04:14:43;10.30;99.90
16315;DHT22;8266;52.150;4.768;2023-12-20T04:17:10;10.20;99.90
16315;DHT22;8266;52.150;4.768;2023-12-20T04:19:37;10.20;99.90
16315;DHT22;8266;52.150;4.768;2023-12-20T04:22:06;10.20;99.90
16315;DHT22;8266;52.150;4.768;2023-12-20T04:24:32;10.10;99.90
16315;DHT22;8266;52.150;4.768;2023-12-20T04:27:00;10.10;99.90
16315;DHT22;8266;52.150;4.768;2023-12-20T04:29:26;10.10;99.90
16315;DHT22;8266;52.150;4.768;2023-12-20T04:31:53;10.00;99.90
16315;DHT22;8266;52.150;4.768;2023-12-20T04:34:22;10.00;99.90
16315;DHT22;8266;52.150;4.768;2023-12-20T04:36:49;10.00;99.90
16315;DHT22;8266;52.150;4.768;2023-12-20T04:39:17;10.00;99.90
16315;DHT22;8266;52.150;4.768;2023-12-20T04:41:47;10.00;99.90
16315;DHT22;8266;52.150;4.768;2023-12-20T04:44:15;10.00;99.90
16315;DHT22;8266;52.150;4.768;2023-12-20T04:46:42;9.90;99.90
16315;DHT22;8266;52.150;4.768;2023-12-20T04:49:11;9.90;99.90
16315;DHT22;8266;52.150;4.768;2023-12-20T04:51:38;9.90;99.90
16315;DHT22;8266;52.150;4.768;2023-12-20T04:54:05;9.90;99.90
16315;DHT22;8266;52.150;4.768;2023-12-20T04:56:33;9.90;99.90
16315;DHT22;8266;52.150;4.768;2023-12-20T04:59:00;9.90;99.90
16315;DHT22;8266;52.150;4.768;2023-12-20T05:01:27;9.90;99.90
16315;DHT22;8266;52.150;4.768;2023-12-20T05:03:54;10.00;99.90
16315;DHT22;8266;52.150;4.768;2023-12-20T05:06:21;10.00;99.90
16315;DHT22;8266;52.150;4.768;2023-12-20T05:08:48;10.00;99.90
16315;DHT22;8266;52.150;4.768;2023-12-20T05:11:15;10.10;99.90
16315;DHT22;8266;52.150;4.768;2023-12-20T05:13:44;10.10;99.90
16315;DHT22;8266;52.150;4.768;2023-12-20T05:16:11;10.10;99.90
16315;DHT22;8266;52.150;4.768;2023-12-20T05:18:39;10.20;99.90
16315;DHT22;8266;52.150;4.768;2023-12-20T05:21:06;10.20;99.90
16315;DHT22;8266;52.150;4.768;2023-12-20T05:23:33;10.20;99.90
16315;DHT22;8266;52.150;4.768;2023-12-20T05:26:00;10.30;99.90
16315;DHT22;8266;52.150;4.768;2023-12-20T05:28:27;10.30;99.90
16315;DHT22;8266;52.150;4.768;2023-12-20T05:30:56;10.30;99.90
16315;DHT22;8266;52.150;4.768;2023-12-20T05:33:23;10.30;99.90
16315;DHT22;8266;52.150;4.768;2023-12-20T05:35:50;10.30;99.90
16315;DHT22;8266;52.150;4.768;2023-12-20T05:38:17;10.40;99.90
16315;DHT22;8266;52.150;4.768;2023-12-20T05:40:43;10.40;99.90
16315;DHT22;8266;52.150;4.768;2023-12-20T05:43:10;10.40;99.90
16315;DHT22;8266;52.150;4.768;2023-12-20T05:45:37;10.50;99.90
16315;DHT22;8266;52.150;4.768;2023-12-20T05:48:06;10.40;99.90
16315;DHT22;8266;52.150;4.768;2023-12-20T05:50:33;10.50;99.90
16315;DHT22;8266;52.150;4.768;2023-12-20T05:53:00;10.50;99.90
16315;DHT22;8266;52.150;4.768;2023-12-20T05:55:27;10.50;99.90
16315;DHT22;8266;52.150;4.768;2023-12-20T05:57:54;10.50;99.90
16315;DHT22;8266;52.150;4.768;2023-12-20T06:00:21;10.50;99.90
16315;DHT22;8266;52.150;4.768;2023-12-20T06:02:48;10.60;99.90
16315;DHT22;8266;52.150;4.768;2023-12-20T06:05:16;10.60;99.90
16315;DHT22;8266;52.150;4.768;2023-12-20T06:07:43;10.60;99.90
16315;DHT22;8266;52.150;4.768;2023-12-20T06:10:12;10.60;99.90
16315;DHT22;8266;52.150;4.768;2023-12-20T06:12:40;10.60;99.90
16315;DHT22;8266;52.150;4.768;2023-12-20T06:15:07;10.60;99.90
16315;DHT22;8266;52.150;4.768;2023-12-20T06:17:35;10.70;99.90
16315;DHT22;8266;52.150;4.768;2023-12-20T06:20:02;10.70;99.90
16315;DHT22;8266;52.150;4.768;2023-12-20T06:22:34;10.70;99.90
16315;DHT22;8266;52.150;4.768;2023-12-20T06:25:01;10.70;99.90
16315;DHT22;8266;52.150;4.768;2023-12-20T06:27:28;10.70;99.90
16315;DHT22;8266;52.150;4.768;2023-12-20T06:29:58;10.70;99.90
16315;DHT22;8266;52.150;4.768;2023-12-20T06:32:25;10.70;99.90
16315;DHT22;8266;52.150;4.768;2023-12-20T06:34:54;10.70;99.90
16315;DHT22;8266;52.150;4.768;2023-12-20T06:37:21;10.70;99.90
16315;DHT22;8266;52.150;4.768;2023-12-20T06:39:49;10.80;99.90
16315;DHT22;8266;52.150;4.768;2023-12-20T06:42:16;10.80;99.90
16315;DHT22;8266;52.150;4.768;2023-12-20T06:44:43;10.80;99.90
16315;DHT22;8266;52.150;4.768;2023-12-20T06:47:13;10.80;99.90
16315;DHT22;8266;52.150;4.768;2023-12-20T06:49:41;10.80;99.90
16315;DHT22;8266;52.150;4.768;2023-12-20T06:52:08;10.80;99.90
16315;DHT22;8266;52.150;4.768;2023-12-20T06:54:35;10.80;99.90
16315;DHT22;8266;52.150;4.768;2023-12-20T06:57:03;10.80;99.90
16315;DHT22;8266;52.150;4.768;2023-12-20T06:59:30;10.80;99.90
16315;DHT22;8266;52.150;4.768;2023-12-20T07:01:57;10.80;99.90
16315;DHT22;8266;52.150;4.768;2023-12-20T07:04:24;10.70;99.90
16315;DHT22;8266;52.150;4.768;2023-12-20T07:06:51;10.70;99.90
16315;DHT22;8266;52.150;4.768;2023-12-20T07:09:22;10.70;99.90
16315;DHT22;8266;52.150;4.768;2023-12-20T07:11:49;10.70;99.90
16315;DHT22;8266;52.150;4.768;2023-12-20T07:14:17;10.60;99.90
16315;DHT22;8266;52.150;4.768;2023-12-20T07:16:44;10.60;99.90
16315;DHT22;8266;52.150;4.768;2023-12-20T07:19:11;10.60;99.90
16315;DHT22;8266;52.150;4.768;2023-12-20T07:21:38;10.60;99.90
16315;DHT22;8266;52.150;4.768;2023-12-20T07:24:05;10.60;99.90
16315;DHT22;8266;52.150;4.768;2023-12-20T07:26:32;10.60;99.90
16315;DHT22;8266;52.150;4.768;2023-12-20T07:28:59;10.60;99.90
16315;DHT22;8266;52.150;4.768;2023-12-20T07:31:28;10.60;99.90
16315;DHT22;8266;52.150;4.768;2023-12-20T07:33:55;10.60;99.90
16315;DHT22;8266;52.150;4.768;2023-12-20T07:36:22;10.50;99.90
16315;DHT22;8266;52.150;4.768;2023-12-20T07:38:49;10.50;99.90
16315;DHT22;8266;52.150;4.768;2023-12-20T07:41:16;10.50;99.90
16315;DHT22;8266;52.150;4.768;2023-12-20T07:43:43;10.50;99.90
16315;DHT22;8266;52.150;4.768;2023-12-20T07:46:12;10.60;99.90
16315;DHT22;8266;52.150;4.768;2023-12-20T07:48:41;10.60;99.90
16315;DHT22;8266;52.150;4.768;2023-12-20T07:51:08;10.60;99.90
16315;DHT22;8266;52.150;4.768;2023-12-20T07:53:35;10.60;99.90
16315;DHT22;8266;52.150;4.768;2023-12-20T07:56:13;10.60;99.90
16315;DHT22;8266;52.150;4.768;2023-12-20T07:58:41;10.60;99.90
16315;DHT22;8266;52.150;4.768;2023-12-20T08:01:07;10.60;99.90
16315;DHT22;8266;52.150;4.768;2023-12-20T08:03:35;10.60;99.90
16315;DHT22;8266;52.150;4.768;2023-12-20T08:06:03;10.70;99.90
16315;DHT22;8266;52.150;4.768;2023-12-20T08:08:30;10.70;99.90
16315;DHT22;8266;52.150;4.768;2023-12-20T08:10:57;10.70;99.90
16315;DHT22;8266;52.150;4.768;2023-12-20T08:13:25;10.80;99.90
16315;DHT22;8266;52.150;4.768;2023-12-20T08:15:53;10.80;99.90
16315;DHT22;8266;52.150;4.768;2023-12-20T08:18:21;10.80;99.90
16315;DHT22;8266;52.150;4.768;2023-12-20T08:20:48;10.80;99.90
16315;DHT22;8266;52.150;4.768;2023-12-20T08:23:19;10.90;99.90
16315;DHT22;8266;52.150;4.768;2023-12-20T08:25:47;10.90;99.90
16315;DHT22;8266;52.150;4.768;2023-12-20T08:28:15;10.90;99.90
16315;DHT22;8266;52.150;4.768;2023-12-20T08:30:42;11.00;99.90
16315;DHT22;8266;52.150;4.768;2023-12-20T08:33:09;11.00;99.90
16315;DHT22;8266;52.150;4.768;2023-12-20T08:35:38;11.00;99.90
16315;DHT22;8266;52.150;4.768;2023-12-20T08:38:05;11.10;99.90
16315;DHT22;8266;52.150;4.768;2023-12-20T08:40:34;11.10;99.90
16315;DHT22;8266;52.150;4.768;2023-12-20T08:43:01;11.10;99.90
16315;DHT22;8266;52.150;4.768;2023-12-20T08:45:28;11.20;99.90
16315;DHT22;8266;52.150;4.768;2023-12-20T08:47:55;11.20;99.90
16315;DHT22;8266;52.150;4.768;2023-12-20T08:50:22;11.20;99.90
16315;DHT22;8266;52.150;4.768;2023-12-20T08:52:49;11.20;99.90
16315;DHT22;8266;52.150;4.768;2023-12-20T08:55:16;11.20;99.90
16315;DHT22;8266;52.150;4.768;2023-12-20T08:57:45;11.30;99.90
16315;DHT22;8266;52.150;4.768;2023-12-20T09:00:13;11.30;99.90
16315;DHT22;8266;52.150;4.768;2023-12-20T09:02:40;11.30;99.90
16315;DHT22;8266;52.150;4.768;2023-12-20T09:05:08;11.30;99.90
16315;DHT22;8266;52.150;4.768;2023-12-20T09:07:35;11.30;99.90
16315;DHT22;8266;52.150;4.768;2023-12-20T09:10:02;11.30;99.90
16315;DHT22;8266;52.150;4.768;2023-12-20T09:12:29;11.30;99.90
16315;DHT22;8266;52.150;4.768;2023-12-20T09:14:58;11.40;99.90
16315;DHT22;8266;52.150;4.768;2023-12-20T09:17:28;11.40;99.90
16315;DHT22;8266;52.150;4.768;2023-12-20T09:19:54;11.40;99.90
16315;DHT22;8266;52.150;4.768;2023-12-20T09:22:21;11.40;99.90
16315;DHT22;8266;52.150;4.768;2023-12-20T09:24:48;11.40;99.90
16315;DHT22;8266;52.150;4.768;2023-12-20T09:27:15;11.50;99.90
16315;DHT22;8266;52.150;4.768;2023-12-20T09:29:42;11.50;99.90
16315;DHT22;8266;52.150;4.768;2023-12-20T09:32:11;11.50;99.90
16315;DHT22;8266;52.150;4.768;2023-12-20T09:34:38;11.50;99.90
16315;DHT22;8266;52.150;4.768;2023-12-20T09:37:05;11.50;99.90
16315;DHT22;8266;52.150;4.768;2023-12-20T09:39:33;11.50;99.90
16315;DHT22;8266;52.150;4.768;2023-12-20T09:42:01;11.60;99.90
16315;DHT22;8266;52.150;4.768;2023-12-20T09:44:29;11.60;99.90
16315;DHT22;8266;52.150;4.768;2023-12-20T09:46:57;11.60;99.90
16315;DHT22;8266;52.150;4.768;2023-12-20T09:49:27;11.60;99.90
16315;DHT22;8266;52.150;4.768;2023-12-20T09:51:54;11.60;99.90
16315;DHT22;8266;52.150;4.768;2023-12-20T09:54:23;11.70;99.90
16315;DHT22;8266;52.150;4.768;2023-12-20T09:56:50;11.70;99.90
16315;DHT22;8266;52.150;4.768;2023-12-20T09:59:17;11.70;99.90
16315;DHT22;8266;52.150;4.768;2023-12-20T10:01:44;11.70;99.90
16315;DHT22;8266;52.150;4.768;2023-12-20T10:04:13;11.70;99.90
16315;DHT22;8266;52.150;4.768;2023-12-20T10:06:44;11.80;99.90
16315;DHT22;8266;52.150;4.768;2023-12-20T10:09:12;11.80;99.90
16315;DHT22;8266;52.150;4.768;2023-12-20T10:11:40;11.90;99.90
16315;DHT22;8266;52.150;4.768;2023-12-20T10:14:07;11.90;99.90
16315;DHT22;8266;52.150;4.768;2023-12-20T10:16:34;11.90;99.90
16315;DHT22;8266;52.150;4.768;2023-12-20T10:19:01;11.90;99.90
16315;DHT22;8266;52.150;4.768;2023-12-20T10:21:28;11.90;99.90
16315;DHT22;8266;52.150;4.768;2023-12-20T10:23:57;12.00;99.90
16315;DHT22;8266;52.150;4.768;2023-12-20T10:26:26;11.90;99.90
16315;DHT22;8266;52.150;4.768;2023-12-20T10:28:54;11.90;99.90
16315;DHT22;8266;52.150;4.768;2023-12-20T10:31:29;11.90;99.90
16315;DHT22;8266;52.150;4.768;2023-12-20T10:33:57;12.00;99.90
16315;DHT22;8266;52.150;4.768;2023-12-20T10:36:26;12.00;99.90
16315;DHT22;8266;52.150;4.768;2023-12-20T10:38:54;12.00;99.90
16315;DHT22;8266;52.150;4.768;2023-12-20T10:41:27;12.00;99.90
16315;DHT22;8266;52.150;4.768;2023-12-20T10:43:56;11.90;99.90
16315;DHT22;8266;52.150;4.768;2023-12-20T10:46:24;11.90;99.90
16315;DHT22;8266;52.150;4.768;2023-12-20T10:48:54;11.90;99.90
16315;DHT22;8266;52.150;4.768;2023-12-20T10:51:22;11.90;99.90
16315;DHT22;8266;52.150;4.768;2023-12-20T10:53:50;11.90;99.90
16315;DHT22;8266;52.150;4.768;2023-12-20T10:56:18;11.90;99.90
16315;DHT22;8266;52.150;4.768;2023-12-20T10:58:49;12.00;99.90
16315;DHT22;8266;52.150;4.768;2023-12-20T11:01:17;12.00;99.90
16315;DHT22;8266;52.150;4.768;2023-12-20T11:03:48;12.10;99.90
16315;DHT22;8266;52.150;4.768;2023-12-20T11:06:31;12.20;99.90
16315;DHT22;8266;52.150;4.768;2023-12-20T11:09:06;12.20;99.90
16315;DHT22;8266;52.150;4.768;2023-12-20T11:11:46;12.30;99.90
16315;DHT22;8266;52.150;4.768;2023-12-20T11:14:23;12.30;99.90
16315;DHT22;8266;52.150;4.768;2023-12-20T11:17:05;12.40;99.90
16315;DHT22;8266;52.150;4.768;2023-12-20T11:19:32;12.40;99.90
16315;DHT22;8266;52.150;4.768;2023-12-20T11:21:59;12.40;99.90
16315;DHT22;8266;52.150;4.768;2023-12-20T11:24:26;12.40;99.90
16315;DHT22;8266;52.150;4.768;2023-12-20T11:26:56;12.40;99.90
16315;DHT22;8266;52.150;4.768;2023-12-20T11:29:34;12.40;99.90
16315;DHT22;8266;52.150;4.768;2023-12-20T11:32:03;12.50;99.90
16315;DHT22;8266;52.150;4.768;2023-12-20T11:34:32;12.50;99.90
16315;DHT22;8266;52.150;4.768;2023-12-20T11:37:00;12.50;99.90
16315;DHT22;8266;52.150;4.768;2023-12-20T11:39:29;12.50;99.90
16315;DHT22;8266;52.150;4.768;2023-12-20T11:42:38;12.50;99.90
16315;DHT22;8266;52.150;4.768;2023-12-20T11:45:08;12.50;99.90
16315;DHT22;8266;52.150;4.768;2023-12-20T11:47:36;12.50;99.90
16315;DHT22;8266;52.150;4.768;2023-12-20T11:50:03;12.50;99.90
16315;DHT22;8266;52.150;4.768;2023-12-20T11:52:30;12.50;99.90
16315;DHT22;8266;52.150;4.768;2023-12-20T11:54:57;12.60;99.90
16315;DHT22;8266;52.150;4.768;2023-12-20T11:57:25;12.60;99.90
16315;DHT22;8266;52.150;4.768;2023-12-20T11:59:53;12.60;99.90
16315;DHT22;8266;52.150;4.768;2023-12-20T12:02:21;12.60;99.90
16315;DHT22;8266;52.150;4.768;2023-12-20T12:04:49;12.60;99.90
16315;DHT22;8266;52.150;4.768;2023-12-20T12:07:16;12.60;99.90
16315;DHT22;8266;52.150;4.768;2023-12-20T12:09:44;12.50;99.90
16315;DHT22;8266;52.150;4.768;2023-12-20T12:12:12;12.60;99.90
16315;DHT22;8266;52.150;4.768;2023-12-20T12:14:40;12.60;99.90
16315;DHT22;8266;52.150;4.768;2023-12-20T12:17:11;12.60;99.90
16315;DHT22;8266;52.150;4.768;2023-12-20T12:19:39;12.60;99.90
16315;DHT22;8266;52.150;4.768;2023-12-20T12:22:06;12.60;99.90
16315;DHT22;8266;52.150;4.768;2023-12-20T12:24:36;12.60;99.90
16315;DHT22;8266;52.150;4.768;2023-12-20T12:27:05;12.60;99.90
16315;DHT22;8266;52.150;4.768;2023-12-20T12:29:32;12.60;99.90
16315;DHT22;8266;52.150;4.768;2023-12-20T12:31:59;12.60;99.90
16315;DHT22;8266;52.150;4.768;2023-12-20T12:34:28;12.60;99.90
16315;DHT22;8266;52.150;4.768;2023-12-20T12:36:56;12.60;99.90
16315;DHT22;8266;52.150;4.768;2023-12-20T12:39:24;12.60;99.90
16315;DHT22;8266;52.150;4.768;2023-12-20T12:41:51;12.60;99.90
16315;DHT22;8266;52.150;4.768;2023-12-20T12:44:18;12.60;99.90
16315;DHT22;8266;52.150;4.768;2023-12-20T12:46:47;12.60;99.90
16315;DHT22;8266;52.150;4.768;2023-12-20T12:49:16;12.60;99.90
16315;DHT22;8266;52.150;4.768;2023-12-20T12:51:45;12.60;99.90
16315;DHT22;8266;52.150;4.768;2023-12-20T12:54:12;12.70;99.90
16315;DHT22;8266;52.150;4.768;2023-12-20T12:56:41;12.60;99.90
16315;DHT22;8266;52.150;4.768;2023-12-20T12:59:08;12.60;99.90
16315;DHT22;8266;52.150;4.768;2023-12-20T13:01:36;12.60;99.90
16315;DHT22;8266;52.150;4.768;2023-12-20T13:04:04;12.60;99.90
16315;DHT22;8266;52.150;4.768;2023-12-20T13:06:35;12.70;99.90
16315;DHT22;8266;52.150;4.768;2023-12-20T13:09:04;12.70;99.90
16315;DHT22;8266;52.150;4.768;2023-12-20T13:11:31;12.70;99.90
16315;DHT22;8266;52.150;4.768;2023-12-20T13:13:58;12.70;99.90
16315;DHT22;8266;52.150;4.768;2023-12-20T13:16:25;12.70;99.90
16315;DHT22;8266;52.150;4.768;2023-12-20T13:18:51;12.70;99.90
16315;DHT22;8266;52.150;4.768;2023-12-20T13:21:18;12.70;99.90
16315;DHT22;8266;52.150;4.768;2023-12-20T13:23:45;12.70;99.90
16315;DHT22;8266;52.150;4.768;2023-12-20T13:26:14;12.70;99.90
16315;DHT22;8266;52.150;4.768;2023-12-20T13:28:41;12.70;99.90
16315;DHT22;8266;52.150;4.768;2023-12-20T13:31:08;12.70;99.90
16315;DHT22;8266;52.150;4.768;2023-12-20T13:33:35;12.70;99.90
16315;DHT22;8266;52.150;4.768;2023-12-20T13:36:04;12.70;99.90
16315;DHT22;8266;52.150;4.768;2023-12-20T13:38:32;12.70;99.90
16315;DHT22;8266;52.150;4.768;2023-12-20T13:40:59;12.70;99.90
16315;DHT22;8266;52.150;4.768;2023-12-20T13:43:27;12.70;99.90
16315;DHT22;8266;52.150;4.768;2023-12-20T13:45:54;12.70;99.90
16315;DHT22;8266;52.150;4.768;2023-12-20T13:48:21;12.70;99.90
16315;DHT22;8266;52.150;4.768;2023-12-20T13:50:48;12.70;99.90
16315;DHT22;8266;52.150;4.768;2023-12-20T13:53:16;12.70;99.90
16315;DHT22;8266;52.150;4.768;2023-12-20T13:55:43;12.70;99.90
16315;DHT22;8266;52.150;4.768;2023-12-20T13:58:10;12.70;99.90
16315;DHT22;8266;52.150;4.768;2023-12-20T14:00:40;12.70;99.90
16315;DHT22;8266;52.150;4.768;2023-12-20T14:03:07;12.70;99.90
16315;DHT22;8266;52.150;4.768;2023-12-20T14:05:35;12.70;99.90
16315;DHT22;8266;52.150;4.768;2023-12-20T14:08:03;12.70;99.90
16315;DHT22;8266;52.150;4.768;2023-12-20T14:10:30;12.70;99.90
16315;DHT22;8266;52.150;4.768;2023-12-20T14:12:57;12.70;99.90
16315;DHT22;8266;52.150;4.768;2023-12-20T14:15:24;12.70;99.90
16315;DHT22;8266;52.150;4.768;2023-12-20T14:17:53;12.70;99.90
16315;DHT22;8266;52.150;4.768;2023-12-20T14:20:20;12.70;99.90
16315;DHT22;8266;52.150;4.768;2023-12-20T14:22:47;12.70;99.90
16315;DHT22;8266;52.150;4.768;2023-12-20T14:25:15;12.70;99.90
16315;DHT22;8266;52.150;4.768;2023-12-20T14:27:42;12.60;99.90
16315;DHT22;8266;52.150;4.768;2023-12-20T14:30:11;12.70;99.90
16315;DHT22;8266;52.150;4.768;2023-12-20T14:32:40;12.60;99.90
16315;DHT22;8266;52.150;4.768;2023-12-20T14:35:09;12.70;99.90
16315;DHT22;8266;52.150;4.768;2023-12-20T14:37:36;12.60;99.90
16315;DHT22;8266;52.150;4.768;2023-12-20T14:40:06;12.60;99.90
16315;DHT22;8266;52.150;4.768;2023-12-20T14:42:36;12.60;99.90
16315;DHT22;8266;52.150;4.768;2023-12-20T14:45:04;12.60;99.90
16315;DHT22;8266;52.150;4.768;2023-12-20T14:47:31;12.60;99.90
16315;DHT22;8266;52.150;4.768;2023-12-20T14:49:58;12.60;99.90
16315;DHT22;8266;52.150;4.768;2023-12-20T14:52:27;12.60;99.90
16315;DHT22;8266;52.150;4.768;2023-12-20T14:54:54;12.60;99.90
16315;DHT22;8266;52.150;4.768;2023-12-20T14:57:21;12.50;99.90
16315;DHT22;8266;52.150;4.768;2023-12-20T14:59:48;12.60;99.90
16315;DHT22;8266;52.150;4.768;2023-12-20T15:02:15;12.50;99.90
16315;DHT22;8266;52.150;4.768;2023-12-20T15:04:42;12.50;99.90
16315;DHT22;8266;52.150;4.768;2023-12-20T15:07:09;12.50;99.90
16315;DHT22;8266;52.150;4.768;2023-12-20T15:09:37;12.50;99.90
16315;DHT22;8266;52.150;4.768;2023-12-20T15:12:05;12.50;99.90
16315;DHT22;8266;52.150;4.768;2023-12-20T15:14:32;12.50;99.90
16315;DHT22;8266;52.150;4.768;2023-12-20T15:16:59;12.50;99.90
16315;DHT22;8266;52.150;4.768;2023-12-20T15:19:26;12.50;99.90
16315;DHT22;8266;52.150;4.768;2023-12-20T15:21:53;12.50;99.90
16315;DHT22;8266;52.150;4.768;2023-12-20T15:24:20;12.50;99.90
16315;DHT22;8266;52.150;4.768;2023-12-20T15:26:55;12.50;99.90
16315;DHT22;8266;52.150;4.768;2023-12-20T15:29:22;12.50;99.90
16315;DHT22;8266;52.150;4.768;2023-12-20T15:31:49;12.50;99.90
16315;DHT22;8266;52.150;4.768;2023-12-20T15:34:17;12.50;99.90
16315;DHT22;8266;52.150;4.768;2023-12-20T15:36:46;12.50;99.90
16315;DHT22;8266;52.150;4.768;2023-12-20T15:39:13;12.50;99.90
16315;DHT22;8266;52.150;4.768;2023-12-20T15:41:41;12.40;99.90
16315;DHT22;8266;52.150;4.768;2023-12-20T15:44:10;12.40;99.90
16315;DHT22;8266;52.150;4.768;2023-12-20T15:46:38;12.40;99.90
16315;DHT22;8266;52.150;4.768;2023-12-20T15:49:05;12.40;99.90
16315;DHT22;8266;52.150;4.768;2023-12-20T15:51:32;12.30;99.90